sensor_id;sensor_type;location;lat;lon;timestamp;temperature;humidity
40600;DHT22;26309;50.924;4.754;2022-09-17T00:00:56;19.70;89.30
40600;DHT22;26309;50.924;4.754;2022-09-17T00:03:23;19.70;89.20
40600;DHT22;26309;50.924;4.754;2022-09-17T00:05:57;19.70;89.20
40600;DHT22;26309;50.924;4.754;2022-09-17T00:08:23;19.70;89.20
40600;DHT22;26309;50.924;4.754;2022-09-17T00:10:49;19.70;89.20
40600;DHT22;26309;50.924;4.754;2022-09-17T00:13:15;19.60;89.00
40600;DHT22;26309;50.924;4.754;2022-09-17T00:15:42;19.70;89.20
40600;DHT22;26309;50.924;4.754;2022-09-17T00:18:08;19.60;89.00
40600;DHT22;26309;50.924;4.754;2022-09-17T00:20:43;19.70;89.00
40600;DHT22;26309;50.924;4.754;2022-09-17T00:23:10;19.70;89.00
40600;DHT22;26309;50.924;4.754;2022-09-17T00:25:42;19.60;89.00
40600;DHT22;26309;50.924;4.754;2022-09-17T00:28:09;19.60;89.00
40600;DHT22;26309;50.924;4.754;2022-09-17T00:30:41;19.60;89.00
40600;DHT22;26309;50.924;4.754;2022-09-17T00:33:07;19.60;89.00
40600;DHT22;26309;50.924;4.754;2022-09-17T00:35:33;19.60;89.70
40600;DHT22;26309;50.924;4.754;2022-09-17T00:37:59;19.60;89.00
40600;DHT22;26309;50.924;4.754;2022-09-17T00:40:25;19.60;89.00
40600;DHT22;26309;50.924;4.754;2022-09-17T00:42:51;19.60;88.90
40600;DHT22;26309;50.924;4.754;2022-09-17T00:45:18;19.60;88.90
40600;DHT22;26309;50.924;4.754;2022-09-17T00:47:47;19.60;89.00
40600;DHT22;26309;50.924;4.754;2022-09-17T00:50:22;19.60;88.90
40600;DHT22;26309;50.924;4.754;2022-09-17T00:53:20;19.60;88.90
40600;DHT22;26309;50.924;4.754;2022-09-17T00:56:08;19.60;88.90
40600;DHT22;26309;50.924;4.754;2022-09-17T00:58:35;19.60;88.90
40600;DHT22;26309;50.924;4.754;2022-09-17T01:01:01;19.50;88.90
40600;DHT22;26309;50.924;4.754;2022-09-17T01:03:27;19.60;89.00
40600;DHT22;26309;50.924;4.754;2022-09-17T01:09:20;19.60;88.90
40600;DHT22;26309;50.924;4.754;2022-09-17T01:23:30;19.50;88.90
40600;DHT22;26309;50.924;4.754;2022-09-17T01:37:14;19.50;89.00
40600;DHT22;26309;50.924;4.754;2022-09-17T01:39:50;19.50;88.90
40600;DHT22;26309;50.924;4.754;2022-09-17T01:42:24;19.50;88.90
40600;DHT22;26309;50.924;4.754;2022-09-17T01:45:08;19.50;88.90
40600;DHT22;26309;50.924;4.754;2022-09-17T01:50:17;19.30;89.00
40600;DHT22;26309;50.924;4.754;2022-09-17T01:52:48;19.20;89.50
40600;DHT22;26309;50.924;4.754;2022-09-17T01:55:16;19.20;89.90
40600;DHT22;26309;50.924;4.754;2022-09-17T01:57:49;19.10;90.30
40600;DHT22;26309;50.924;4.754;2022-09-17T02:00:17;19.10;90.00
40600;DHT22;26309;50.924;4.754;2022-09-17T02:05:41;19.10;90.10
40600;DHT22;26309;50.924;4.754;2022-09-17T02:08:29;19.10;90.00
40600;DHT22;26309;50.924;4.754;2022-09-17T02:11:07;19.10;90.00
40600;DHT22;26309;50.924;4.754;2022-09-17T02:13:59;19.20;90.10
40600;DHT22;26309;50.924;4.754;2022-09-17T02:16:28;19.10;90.10
40600;DHT22;26309;50.924;4.754;2022-09-17T02:19:08;19.10;90.20
40600;DHT22;26309;50.924;4.754;2022-09-17T02:22:02;19.10;90.10
40600;DHT22;26309;50.924;4.754;2022-09-17T02:27:14;19.10;90.10
40600;DHT22;26309;50.924;4.754;2022-09-17T02:29:43;19.20;90.20
40600;DHT22;26309;50.924;4.754;2022-09-17T02:32:10;19.20;90.10
40600;DHT22;26309;50.924;4.754;2022-09-17T02:34:37;19.20;90.10
40600;DHT22;26309;50.924;4.754;2022-09-17T02:37:03;19.10;90.10
40600;DHT22;26309;50.924;4.754;2022-09-17T02:39:30;19.20;90.10
40600;DHT22;26309;50.924;4.754;2022-09-17T02:58:31;19.20;90.10
40600;DHT22;26309;50.924;4.754;2022-09-17T03:01:03;19.20;90.10
40600;DHT22;26309;50.924;4.754;2022-09-17T03:03:33;19.20;90.10
40600;DHT22;26309;50.924;4.754;2022-09-17T03:06:00;19.20;90.10
40600;DHT22;26309;50.924;4.754;2022-09-17T03:08:33;19.20;90.10
40600;DHT22;26309;50.924;4.754;2022-09-17T03:10:59;19.20;90.10
40600;DHT22;26309;50.924;4.754;2022-09-17T03:13:25;19.20;90.00
40600;DHT22;26309;50.924;4.754;2022-09-17T03:15:51;19.20;90.00
40600;DHT22;26309;50.924;4.754;2022-09-17T03:18:17;19.20;90.00
40600;DHT22;26309;50.924;4.754;2022-09-17T03:20:43;19.20;90.00
40600;DHT22;26309;50.924;4.754;2022-09-17T03:23:09;19.20;90.00
40600;DHT22;26309;50.924;4.754;2022-09-17T03:25:37;19.20;90.00
40600;DHT22;26309;50.924;4.754;2022-09-17T03:28:03;19.30;90.00
40600;DHT22;26309;50.924;4.754;2022-09-17T03:30:29;19.30;90.00
40600;DHT22;26309;50.924;4.754;2022-09-17T03:32:55;19.30;90.00
40600;DHT22;26309;50.924;4.754;2022-09-17T03:35:21;19.30;90.00
40600;DHT22;26309;50.924;4.754;2022-09-17T03:37:46;19.30;89.90
40600;DHT22;26309;50.924;4.754;2022-09-17T03:40:12;19.30;89.90
40600;DHT22;26309;50.924;4.754;2022-09-17T03:42:38;19.30;89.90
40600;DHT22;26309;50.924;4.754;2022-09-17T03:45:04;19.30;89.90
40600;DHT22;26309;50.924;4.754;2022-09-17T03:47:30;19.30;89.80
40600;DHT22;26309;50.924;4.754;2022-09-17T03:49:56;19.30;89.70
40600;DHT22;26309;50.924;4.754;2022-09-17T03:52:22;19.30;89.70
40600;DHT22;26309;50.924;4.754;2022-09-17T03:54:48;19.20;90.10
40600;DHT22;26309;50.924;4.754;2022-09-17T03:57:14;19.30;89.60
40600;DHT22;26309;50.924;4.754;2022-09-17T03:59:40;19.30;89.50
40600;DHT22;26309;50.924;4.754;2022-09-17T04:02:05;19.30;89.50
40600;DHT22;26309;50.924;4.754;2022-09-17T04:04:31;19.20;89.40
40600;DHT22;26309;50.924;4.754;2022-09-17T04:06:57;19.20;89.40
40600;DHT22;26309;50.924;4.754;2022-09-17T04:09:23;19.30;89.40
40600;DHT22;26309;50.924;4.754;2022-09-17T04:11:48;19.20;89.30
40600;DHT22;26309;50.924;4.754;2022-09-17T04:14:14;19.20;89.20
40600;DHT22;26309;50.924;4.754;2022-09-17T04:16:40;19.20;89.20
40600;DHT22;26309;50.924;4.754;2022-09-17T04:19:06;19.20;89.20
40600;DHT22;26309;50.924;4.754;2022-09-17T04:21:32;19.30;89.20
40600;DHT22;26309;50.924;4.754;2022-09-17T04:23:58;19.20;89.00
40600;DHT22;26309;50.924;4.754;2022-09-17T04:26:24;19.20;89.00
40600;DHT22;26309;50.924;4.754;2022-09-17T04:28:50;19.20;89.00
40600;DHT22;26309;50.924;4.754;2022-09-17T04:31:16;19.20;88.90
40600;DHT22;26309;50.924;4.754;2022-09-17T04:33:41;19.20;88.90
40600;DHT22;26309;50.924;4.754;2022-09-17T04:36:07;19.20;88.90
40600;DHT22;26309;50.924;4.754;2022-09-17T04:38:33;19.20;88.80
40600;DHT22;26309;50.924;4.754;2022-09-17T04:40:59;19.20;88.70
40600;DHT22;26309;50.924;4.754;2022-09-17T04:43:25;19.20;88.70
40600;DHT22;26309;50.924;4.754;2022-09-17T04:45:51;19.20;88.70
40600;DHT22;26309;50.924;4.754;2022-09-17T04:48:17;19.20;88.70
40600;DHT22;26309;50.924;4.754;2022-09-17T04:50:43;19.20;88.60
40600;DHT22;26309;50.924;4.754;2022-09-17T04:53:09;19.20;88.60
40600;DHT22;26309;50.924;4.754;2022-09-17T04:55:34;19.20;88.50
40600;DHT22;26309;50.924;4.754;2022-09-17T04:58:00;19.20;88.50
40600;DHT22;26309;50.924;4.754;2022-09-17T05:00:26;19.20;88.40
40600;DHT22;26309;50.924;4.754;2022-09-17T05:02:54;19.20;88.50
40600;DHT22;26309;50.924;4.754;2022-09-17T05:05:20;19.20;88.40
40600;DHT22;26309;50.924;4.754;2022-09-17T05:07:47;19.20;88.40
40600;DHT22;26309;50.924;4.754;2022-09-17T05:10:15;19.20;88.40
40600;DHT22;26309;50.924;4.754;2022-09-17T05:12:50;19.20;88.30
40600;DHT22;26309;50.924;4.754;2022-09-17T05:15:17;19.20;88.30
40600;DHT22;26309;50.924;4.754;2022-09-17T05:17:44;19.20;88.40
40600;DHT22;26309;50.924;4.754;2022-09-17T05:20:10;19.20;88.20
40600;DHT22;26309;50.924;4.754;2022-09-17T05:22:50;19.20;88.20
40600;DHT22;26309;50.924;4.754;2022-09-17T05:25:18;19.20;88.20
40600;DHT22;26309;50.924;4.754;2022-09-17T05:27:44;19.20;88.20
40600;DHT22;26309;50.924;4.754;2022-09-17T05:30:11;19.20;88.10
40600;DHT22;26309;50.924;4.754;2022-09-17T05:32:37;19.20;88.10
40600;DHT22;26309;50.924;4.754;2022-09-17T05:35:04;19.20;88.00
40600;DHT22;26309;50.924;4.754;2022-09-17T05:37:30;19.20;88.00
40600;DHT22;26309;50.924;4.754;2022-09-17T05:39:56;19.20;88.00
40600;DHT22;26309;50.924;4.754;2022-09-17T05:42:22;19.20;88.00
40600;DHT22;26309;50.924;4.754;2022-09-17T05:44:48;19.20;88.00
40600;DHT22;26309;50.924;4.754;2022-09-17T05:47:14;19.20;87.90
40600;DHT22;26309;50.924;4.754;2022-09-17T05:49:40;19.20;88.00
40600;DHT22;26309;50.924;4.754;2022-09-17T05:52:06;19.20;87.90
40600;DHT22;26309;50.924;4.754;2022-09-17T05:54:32;19.20;88.00
40600;DHT22;26309;50.924;4.754;2022-09-17T05:56:58;19.20;88.00
40600;DHT22;26309;50.924;4.754;2022-09-17T05:59:23;19.20;88.00
40600;DHT22;26309;50.924;4.754;2022-09-17T06:01:49;19.20;88.00
40600;DHT22;26309;50.924;4.754;2022-09-17T06:04:15;19.20;88.00
40600;DHT22;26309;50.924;4.754;2022-09-17T06:06:42;19.20;88.00
40600;DHT22;26309;50.924;4.754;2022-09-17T06:09:09;19.20;88.00
40600;DHT22;26309;50.924;4.754;2022-09-17T06:11:38;19.20;88.00
40600;DHT22;26309;50.924;4.754;2022-09-17T06:14:04;19.20;88.10
40600;DHT22;26309;50.924;4.754;2022-09-17T06:16:30;19.20;88.10
40600;DHT22;26309;50.924;4.754;2022-09-17T06:18:55;19.20;88.10
40600;DHT22;26309;50.924;4.754;2022-09-17T06:21:21;19.20;88.10
40600;DHT22;26309;50.924;4.754;2022-09-17T06:23:50;19.20;88.10
40600;DHT22;26309;50.924;4.754;2022-09-17T06:26:17;19.20;88.10
40600;DHT22;26309;50.924;4.754;2022-09-17T06:28:43;19.20;88.10
40600;DHT22;26309;50.924;4.754;2022-09-17T06:31:10;19.20;88.10
40600;DHT22;26309;50.924;4.754;2022-09-17T06:33:37;19.20;88.10
40600;DHT22;26309;50.924;4.754;2022-09-17T06:36:08;19.20;88.10
40600;DHT22;26309;50.924;4.754;2022-09-17T06:38:36;19.20;88.10
40600;DHT22;26309;50.924;4.754;2022-09-17T06:41:02;19.20;88.10
40600;DHT22;26309;50.924;4.754;2022-09-17T06:43:29;19.20;88.20
40600;DHT22;26309;50.924;4.754;2022-09-17T06:45:59;19.20;88.10
40600;DHT22;26309;50.924;4.754;2022-09-17T06:48:28;19.20;88.10
40600;DHT22;26309;50.924;4.754;2022-09-17T06:50:54;19.20;88.10
40600;DHT22;26309;50.924;4.754;2022-09-17T06:53:21;19.20;88.20
40600;DHT22;26309;50.924;4.754;2022-09-17T06:55:48;19.20;88.10
40600;DHT22;26309;50.924;4.754;2022-09-17T06:58:13;19.20;88.10
40600;DHT22;26309;50.924;4.754;2022-09-17T07:00:40;19.20;88.20
40600;DHT22;26309;50.924;4.754;2022-09-17T07:03:06;19.20;88.20
40600;DHT22;26309;50.924;4.754;2022-09-17T07:05:31;19.20;88.20
40600;DHT22;26309;50.924;4.754;2022-09-17T07:08:02;19.20;88.20
40600;DHT22;26309;50.924;4.754;2022-09-17T07:10:28;19.20;88.20
40600;DHT22;26309;50.924;4.754;2022-09-17T07:12:54;19.20;88.30
40600;DHT22;26309;50.924;4.754;2022-09-17T07:15:20;19.20;88.40
40600;DHT22;26309;50.924;4.754;2022-09-17T07:17:46;19.20;88.40
40600;DHT22;26309;50.924;4.754;2022-09-17T07:20:12;19.20;88.40
40600;DHT22;26309;50.924;4.754;2022-09-17T07:22:38;19.20;88.50
40600;DHT22;26309;50.924;4.754;2022-09-17T07:25:04;19.20;88.50
40600;DHT22;26309;50.924;4.754;2022-09-17T07:27:30;19.20;88.50
40600;DHT22;26309;50.924;4.754;2022-09-17T07:29:57;19.20;88.50
40600;DHT22;26309;50.924;4.754;2022-09-17T07:32:23;19.20;88.60
40600;DHT22;26309;50.924;4.754;2022-09-17T07:34:49;19.20;88.60
40600;DHT22;26309;50.924;4.754;2022-09-17T07:37:15;19.20;88.70
40600;DHT22;26309;50.924;4.754;2022-09-17T07:39:41;19.20;88.70
40600;DHT22;26309;50.924;4.754;2022-09-17T07:42:09;19.20;88.70
40600;DHT22;26309;50.924;4.754;2022-09-17T07:44:35;19.20;88.70
40600;DHT22;26309;50.924;4.754;2022-09-17T07:47:01;19.30;88.90
40600;DHT22;26309;50.924;4.754;2022-09-17T07:49:27;19.30;88.90
40600;DHT22;26309;50.924;4.754;2022-09-17T07:51:52;19.30;89.00
40600;DHT22;26309;50.924;4.754;2022-09-17T07:54:21;19.30;89.00
40600;DHT22;26309;50.924;4.754;2022-09-17T08:22:40;21.20;90.70
40600;DHT22;26309;50.924;4.754;2022-09-17T08:25:07;22.50;91.90
40600;DHT22;26309;50.924;4.754;2022-09-17T08:27:34;22.20;86.70
40600;DHT22;26309;50.924;4.754;2022-09-17T08:30:01;21.90;88.00
40600;DHT22;26309;50.924;4.754;2022-09-17T08:32:28;21.70;89.20
40600;DHT22;26309;50.924;4.754;2022-09-17T09:11:43;23.20;90.00
40600;DHT22;26309;50.924;4.754;2022-09-17T09:16:43;24.70;90.30
40600;DHT22;26309;50.924;4.754;2022-09-17T09:21:52;26.50;83.40
40600;DHT22;26309;50.924;4.754;2022-09-17T09:24:22;26.60;73.20
40600;DHT22;26309;50.924;4.754;2022-09-17T09:27:00;26.20;72.40
40600;DHT22;26309;50.924;4.754;2022-09-17T09:32:50;25.20;74.60
40600;DHT22;26309;50.924;4.754;2022-09-17T09:35:29;24.80;75.90
